createdAt,value
2019-04-06T00:02:15.137Z,93633.86
2019-04-06T00:04:43.760Z,93627.53
2019-04-06T00:07:12.459Z,93629.05
2019-04-06T00:09:41.134Z,93628.29
2019-04-06T00:12:09.766Z,93630.13
2019-04-06T00:14:38.694Z,93637.53
2019-04-06T00:17:07.435Z,93627.84
2019-04-06T00:19:36.057Z,93618.10
2019-04-06T00:22:04.761Z,93616.49
2019-04-06T00:24:33.413Z,93625.05
2019-04-06T00:27:02.042Z,93618.38
2019-04-06T00:29:30.733Z,93618.60
2019-04-06T00:32:01.035Z,93624.15
2019-04-06T00:34:29.590Z,93624.42
2019-04-06T00:36:58.210Z,93619.70
2019-04-06T00:39:26.889Z,93625.16
2019-04-06T00:41:55.518Z,93628.03
2019-04-06T00:44:24.144Z,93619.98
2019-04-06T00:46:52.820Z,93618.77
2019-04-06T00:49:21.449Z,93618.85
2019-04-06T00:51:50.064Z,93616.80
2019-04-06T00:54:18.732Z,93622.26
2019-04-06T00:56:47.340Z,93618.86
2019-04-06T00:59:15.969Z,93614.00
2019-04-06T01:01:44.713Z,93612.61
2019-04-06T01:04:13.338Z,93616.20
2019-04-06T01:06:41.964Z,93613.53
2019-04-06T01:09:10.639Z,93616.70
2019-04-06T01:11:39.327Z,93611.13
2019-04-06T01:14:07.969Z,93611.13
2019-04-06T01:16:36.641Z,93605.39
2019-04-06T01:19:05.536Z,93612.39
2019-04-06T01:21:34.169Z,93608.26
2019-04-06T01:24:02.909Z,93602.93
2019-04-06T01:26:31.532Z,93616.40
2019-04-06T01:29:00.152Z,93614.25
2019-04-06T01:31:28.838Z,93608.23
2019-04-06T01:33:59.020Z,93610.97
2019-04-06T01:36:27.977Z,93617.67
2019-04-06T01:38:56.653Z,93610.19
2019-04-06T01:41:25.277Z,93610.28
2019-04-06T01:43:53.919Z,93610.59
2019-04-06T01:46:22.528Z,93613.30
2019-04-06T01:48:50.985Z,93612.08
2019-04-06T01:51:19.613Z,93609.59
2019-04-06T01:53:48.271Z,93608.17
2019-04-06T01:56:18.667Z,93608.17
2019-04-06T01:58:47.236Z,93602.29
2019-04-06T02:01:20.184Z,93607.05
2019-04-06T02:03:48.809Z,93597.65
2019-04-06T02:06:17.425Z,93597.65
2019-04-06T02:08:46.085Z,93595.27
2019-04-06T02:11:14.710Z,93605.50
2019-04-06T02:13:43.263Z,93592.69
2019-04-06T02:16:11.903Z,93594.71
2019-04-06T02:18:40.530Z,93589.58
2019-04-06T02:21:09.157Z,93588.55
2019-04-06T02:23:37.813Z,93594.14
2019-04-06T02:26:06.440Z,93578.16
2019-04-06T02:28:35.068Z,93587.47
2019-04-06T02:31:11.364Z,93587.47
2019-04-06T02:33:57.369Z,93582.50
2019-04-06T02:36:33.649Z,93589.25
2019-04-06T02:39:03.913Z,93584.68
2019-04-06T02:41:37.151Z,93590.44
2019-04-06T02:44:05.925Z,93591.47
2019-04-06T02:46:34.565Z,93597.38
2019-04-06T02:49:03.196Z,93591.22
2019-04-06T02:51:31.897Z,93583.47
2019-04-06T02:54:00.502Z,93591.13
2019-04-06T02:56:44.352Z,93592.39
2019-04-06T02:58:59.506Z,93589.65
2019-04-06T03:01:28.207Z,93601.67
2019-04-06T03:03:56.828Z,93612.16
2019-04-06T03:06:25.494Z,93603.95
2019-04-06T03:08:54.130Z,93604.45
2019-04-06T03:11:22.744Z,93602.39
2019-04-06T03:13:51.399Z,93596.75
2019-04-06T03:16:20.021Z,93599.00
2019-04-06T03:18:48.505Z,93597.53
2019-04-06T03:21:17.254Z,93601.09
2019-04-06T03:23:51.582Z,93588.53
2019-04-06T03:26:16.211Z,93582.36
2019-04-06T03:28:45.270Z,93606.40
2019-04-06T03:31:13.902Z,93604.91
2019-04-06T03:33:42.527Z,93602.42
2019-04-06T03:36:11.298Z,93602.88
2019-04-06T03:38:39.828Z,93602.16
2019-04-06T03:41:08.687Z,93617.77
2019-04-06T03:43:37.600Z,93613.42
2019-04-06T03:46:06.208Z,93612.72
2019-04-06T03:48:34.846Z,93615.01
2019-04-06T03:51:03.502Z,93619.56
2019-04-06T03:53:32.049Z,93619.74
2019-04-06T03:56:00.663Z,93619.41
2019-04-06T03:58:29.286Z,93618.12
2019-04-06T04:00:57.915Z,93618.08
2019-04-06T04:03:26.495Z,93621.93
2019-04-06T04:05:55.144Z,93629.66
2019-04-06T04:08:23.701Z,93620.42
2019-04-06T04:10:52.256Z,93628.59
2019-04-06T04:13:21.099Z,93630.77
2019-04-06T04:15:49.928Z,93635.19
2019-04-06T04:18:18.499Z,93629.00
2019-04-06T04:20:47.137Z,93633.38
2019-04-06T04:23:15.695Z,93634.11
2019-04-06T04:25:44.239Z,93640.52
2019-04-06T04:28:13.002Z,93637.48
2019-04-06T04:30:41.623Z,93649.59
2019-04-06T04:33:10.168Z,93652.64
2019-04-06T04:35:38.771Z,93662.77
2019-04-06T04:38:07.396Z,93665.41
2019-04-06T04:40:35.993Z,93658.64
2019-04-06T04:43:04.636Z,93654.16
2019-04-06T04:45:33.457Z,93664.31
2019-04-06T04:48:02.071Z,93667.55
2019-04-06T04:50:30.680Z,93667.45
2019-04-06T04:52:59.305Z,93666.36
2019-04-06T04:55:27.987Z,93678.83
2019-04-06T04:57:56.827Z,93671.22
2019-04-06T05:00:25.483Z,93668.95
2019-04-06T05:02:54.038Z,93673.31
2019-04-06T05:05:22.731Z,93670.42
2019-04-06T05:07:51.353Z,93669.56
2019-04-06T05:10:19.979Z,93672.95
2019-04-06T05:12:48.956Z,93673.07
2019-04-06T05:15:23.484Z,93667.83
2019-04-06T05:17:51.983Z,93670.73
2019-04-06T05:20:20.643Z,93666.92
2019-04-06T05:22:49.272Z,93669.95
2019-04-06T05:25:17.897Z,93672.70
2019-04-06T05:27:52.574Z,93668.59
2019-04-06T05:30:17.133Z,93673.37
2019-04-06T05:32:45.748Z,93676.27
2019-04-06T05:35:14.414Z,93677.19
2019-04-06T05:37:43.042Z,93670.73
2019-04-06T05:40:11.766Z,93673.41
2019-04-06T05:42:40.424Z,93674.97
2019-04-06T05:45:09.256Z,93673.69
2019-04-06T05:47:38.011Z,93675.73
2019-04-06T05:50:07.613Z,93670.54
2019-04-06T05:52:36.168Z,93668.22
2019-04-06T05:55:05.979Z,93669.66
2019-04-06T05:57:37.074Z,93666.67
2019-04-06T06:00:09.737Z,93665.51
2019-04-06T06:02:40.368Z,93664.00
2019-04-06T06:05:08.570Z,93663.55
2019-04-06T06:07:38.038Z,93664.56
2019-04-06T06:10:07.859Z,93664.56
2019-04-06T06:12:36.648Z,93665.75
2019-04-06T06:15:07.858Z,93664.47
2019-04-06T06:17:36.490Z,93662.23
2019-04-06T06:20:07.190Z,93665.80
2019-04-06T06:22:35.819Z,93665.80
2019-04-06T06:25:06.580Z,93674.70
2019-04-06T06:27:35.255Z,93665.48
2019-04-06T06:30:05.630Z,93670.62
2019-04-06T06:32:34.247Z,93663.82
2019-04-06T06:35:02.916Z,93664.17
2019-04-06T06:37:31.704Z,93658.37
2019-04-06T06:40:00.275Z,93670.06
2019-04-06T06:42:28.857Z,93676.50
2019-04-06T06:44:57.476Z,93670.14
2019-04-06T06:47:26.107Z,93667.59
2019-04-06T06:49:54.764Z,93663.44
2019-04-06T06:52:23.438Z,93666.60
2019-04-06T06:54:52.018Z,93664.95
2019-04-06T06:57:20.683Z,93674.52
2019-04-06T06:59:49.304Z,93678.25
2019-04-06T07:02:17.852Z,93672.69
2019-04-06T07:04:46.456Z,93672.41
2019-04-06T07:07:15.074Z,93667.69
2019-04-06T07:09:43.699Z,93681.73
2019-04-06T07:12:12.731Z,93679.17
2019-04-06T07:14:41.428Z,93668.42
2019-04-06T07:17:10.171Z,93674.84
2019-04-06T07:19:38.772Z,93676.38
2019-04-06T07:22:07.388Z,93674.58
2019-04-06T07:24:36.022Z,93668.02
2019-04-06T07:27:04.780Z,93668.36
2019-04-06T07:29:33.411Z,93674.25
2019-04-06T07:32:02.036Z,93672.52
2019-04-06T07:34:30.708Z,93674.22
2019-04-06T07:36:59.334Z,93674.63
2019-04-06T07:39:27.970Z,93676.08
2019-04-06T07:41:56.820Z,93671.19
2019-04-06T07:44:25.497Z,93670.34
2019-04-06T07:46:54.081Z,93671.28
2019-04-06T07:49:22.753Z,93665.59
2019-04-06T07:51:51.475Z,93672.80
2019-04-06T07:54:20.092Z,93672.38
2019-04-06T07:56:48.834Z,93669.17
2019-04-06T07:59:17.399Z,93670.55
2019-04-06T08:01:48.302Z,93677.29
2019-04-06T08:04:16.405Z,93676.87
2019-04-06T08:06:45.044Z,93677.09
2019-04-06T08:09:13.677Z,93669.69
2019-04-06T08:15:11.509Z,93672.64
2019-04-06T08:17:40.076Z,93673.34
2019-04-06T08:20:08.818Z,93671.31
2019-04-06T08:22:37.486Z,93675.69
2019-04-06T08:25:07.017Z,93673.20
2019-04-06T08:27:35.656Z,93673.76
2019-04-06T08:30:05.860Z,93678.52
2019-04-06T08:32:34.481Z,93675.23
2019-04-06T08:35:03.211Z,93666.63
2019-04-06T08:37:31.876Z,93663.05
2019-04-06T08:40:00.512Z,93667.50
2019-04-06T08:42:29.000Z,93667.80
2019-04-06T08:44:57.846Z,93665.08
2019-04-06T08:47:26.645Z,93664.63
2019-04-06T08:49:55.293Z,93664.21
2019-04-06T08:52:23.998Z,93663.22
2019-04-06T08:54:52.777Z,93666.43
2019-04-06T08:57:22.868Z,93668.97
2019-04-06T08:59:51.765Z,93663.18
2019-04-06T09:02:20.791Z,93662.20
2019-04-06T09:04:49.658Z,93654.70
2019-04-06T09:07:18.339Z,93660.06
2019-04-06T09:09:46.967Z,93664.59
2019-04-06T09:12:16.205Z,93650.54
2019-04-06T09:14:44.861Z,93648.48
2019-04-06T09:17:13.485Z,93652.22
2019-04-06T09:19:43.199Z,93658.39
2019-04-06T09:22:11.790Z,93653.55
2019-04-06T09:24:40.425Z,93656.83
2019-04-06T09:27:08.994Z,93655.56
2019-04-06T09:29:37.653Z,93656.81
2019-04-06T09:32:06.309Z,93656.52
2019-04-06T09:34:34.925Z,93662.17
2019-04-06T09:37:03.588Z,93656.42
2019-04-06T09:39:32.215Z,93651.63
2019-04-06T09:42:00.842Z,93657.07
2019-04-06T09:44:39.871Z,93647.31
2019-04-06T09:47:10.278Z,93657.67
2019-04-06T09:49:58.923Z,93662.30
2019-04-06T09:52:29.178Z,93663.47
2019-04-06T09:54:59.739Z,93656.21
2019-04-06T09:57:35.788Z,93649.34
2019-04-06T10:00:08.440Z,93652.25
2019-04-06T10:02:44.590Z,93653.70
2019-04-06T10:05:31.113Z,93647.44
2019-04-06T10:08:17.733Z,93646.81
2019-04-06T10:10:50.953Z,93649.73
2019-04-06T10:13:30.009Z,93646.45
2019-04-06T10:16:15.914Z,93640.67
2019-04-06T10:18:49.300Z,93637.63
2019-04-06T10:21:35.513Z,93635.61
2019-04-06T10:24:05.806Z,93648.11
2019-04-06T10:26:39.245Z,93628.29
2019-04-06T10:29:12.713Z,93626.53
2019-04-06T10:31:43.034Z,93623.11
2019-04-06T10:34:29.255Z,93622.86
2019-04-06T10:37:02.305Z,93615.66
2019-04-06T10:39:38.757Z,93616.48
2019-04-06T10:42:12.025Z,93614.58
2019-04-06T10:44:58.620Z,93606.20
2019-04-06T10:47:44.844Z,93599.37
2019-04-06T10:50:30.010Z,93589.55
2019-04-06T10:53:05.679Z,93587.34
2019-04-06T10:55:44.707Z,93583.70
2019-04-06T10:58:15.222Z,93585.80
2019-04-06T11:01:01.845Z,93578.45
2019-04-06T11:03:32.129Z,93571.86
2019-04-06T11:06:02.409Z,93572.22
2019-04-06T11:08:41.524Z,93575.45
2019-04-06T11:11:20.787Z,93567.93
2019-04-06T11:13:57.034Z,93554.64
2019-04-06T11:16:27.296Z,93557.09
2019-04-06T11:19:13.839Z,93557.86
2019-04-06T11:21:47.102Z,93559.43
2019-04-06T11:24:20.961Z,93551.58
2019-04-06T11:26:51.288Z,93555.33
2019-04-06T11:29:21.478Z,93554.42
2019-04-06T11:32:07.731Z,93547.66
2019-04-06T11:34:46.648Z,93548.23
2019-04-06T11:37:22.900Z,93544.87
2019-04-06T11:40:08.088Z,93548.24
2019-04-06T11:42:47.281Z,93541.97
2019-04-06T11:45:23.695Z,93533.77
2019-04-06T11:47:59.781Z,93534.11
2019-04-06T11:50:42.050Z,93531.61
2019-04-06T11:53:18.035Z,93530.92
2019-04-06T11:56:04.300Z,93527.94
2019-04-06T11:58:37.342Z,93529.63
2019-04-06T12:01:10.399Z,93521.22
2019-04-06T12:03:52.687Z,93526.27
2019-04-06T12:06:25.686Z,93524.55
2019-04-06T12:09:08.177Z,93519.64
2019-04-06T12:11:41.130Z,93518.16
2019-04-06T12:14:17.369Z,93518.80
2019-04-06T12:16:47.712Z,93513.63
2019-04-06T12:19:17.945Z,93509.65
2019-04-06T12:21:48.475Z,93504.64
2019-04-06T12:24:36.890Z,93505.09
2019-04-06T12:27:08.685Z,93496.94
2019-04-06T12:29:50.786Z,93491.37
2019-04-06T12:32:33.469Z,93490.85
2019-04-06T12:35:03.699Z,93485.25
2019-04-06T12:37:49.165Z,93489.33
2019-04-06T12:40:31.486Z,93482.16
2019-04-06T12:43:10.665Z,93474.95
2019-04-06T12:45:40.927Z,93477.18
2019-04-06T12:48:27.055Z,93473.96
2019-04-06T12:51:00.558Z,93471.41
2019-04-06T12:53:46.289Z,93463.03
2019-04-06T12:56:16.729Z,93459.29
2019-04-06T12:58:46.927Z,93452.38
2019-04-06T13:01:20.345Z,93455.23
2019-04-06T13:04:06.954Z,93451.33
2019-04-06T13:06:49.183Z,93451.95
2019-04-06T13:09:19.443Z,93444.09
2019-04-06T13:12:02.032Z,93453.03
2019-04-06T13:14:47.461Z,93449.55
2019-04-06T13:17:35.704Z,93449.97
2019-04-06T13:20:23.487Z,93444.44
2019-04-06T13:23:08.974Z,93442.77
2019-04-06T13:25:51.052Z,93447.80
2019-04-06T13:28:34.474Z,93450.51
2019-04-06T13:31:20.115Z,93444.11
2019-04-06T13:34:05.365Z,93436.19
2019-04-06T13:36:51.918Z,93444.38
2019-04-06T13:39:25.155Z,93439.44
2019-04-06T13:42:11.409Z,93440.09
2019-04-06T13:44:41.732Z,93440.77
2019-04-06T13:47:14.686Z,93446.37
2019-04-06T13:49:47.752Z,93441.67
2019-04-06T13:52:18.035Z,93444.67
2019-04-06T13:54:54.055Z,93431.49
2019-04-06T13:57:36.998Z,93441.75
2019-04-06T14:00:09.244Z,93439.84
2019-04-06T14:02:45.572Z,93435.92
2019-04-06T14:05:24.970Z,93428.67
2019-04-06T14:08:01.440Z,93441.55
2019-04-06T14:10:37.883Z,93438.43
2019-04-06T14:13:08.166Z,93432.00
2019-04-06T14:15:38.359Z,93432.14
2019-04-06T14:18:08.918Z,93430.58
2019-04-06T14:20:55.042Z,93433.15
2019-04-06T14:23:40.225Z,93425.91
2019-04-06T14:26:22.258Z,93436.33
2019-04-06T14:29:04.503Z,93436.28
2019-04-06T14:31:50.774Z,93430.39
2019-04-06T14:34:39.348Z,93431.81
2019-04-06T14:37:18.400Z,93425.16
2019-04-06T14:40:07.228Z,93433.78
2019-04-06T14:42:53.646Z,93432.52
2019-04-06T14:45:26.922Z,93428.64
2019-04-06T14:47:57.182Z,93428.18
2019-04-06T14:50:27.463Z,93430.41
2019-04-06T14:53:12.919Z,93432.88
2019-04-06T14:55:58.055Z,93429.80
2019-04-06T14:58:44.694Z,93425.89
2019-04-06T15:01:41.171Z,93428.07
2019-04-06T15:04:18.261Z,93430.53
2019-04-06T15:06:51.562Z,93436.94
2019-04-06T15:09:37.853Z,93426.03
2019-04-06T15:12:10.834Z,93426.88
2019-04-06T15:14:44.059Z,93417.39
2019-04-06T15:17:14.343Z,93429.45
2019-04-06T15:19:44.689Z,93422.63
2019-04-06T15:22:33.159Z,93423.42
2019-04-06T15:25:03.418Z,93429.09
2019-04-06T15:27:36.531Z,93430.14
2019-04-06T15:30:25.795Z,93433.56
2019-04-06T15:32:56.928Z,93428.07
2019-04-06T15:35:33.013Z,93423.32
2019-04-06T15:38:18.380Z,93436.03
2019-04-06T15:40:54.764Z,93434.19
2019-04-06T15:43:43.212Z,93435.12
2019-04-06T15:46:16.323Z,93434.02
2019-04-06T15:48:52.469Z,93436.45
2019-04-06T15:51:31.681Z,93438.64
2019-04-06T15:54:17.750Z,93442.32
2019-04-06T15:56:50.931Z,93446.74
2019-04-06T15:59:30.106Z,93439.23
2019-04-06T16:02:03.445Z,93444.17
2019-04-06T16:04:50.450Z,93455.33
2019-04-06T16:07:33.633Z,93459.00
2019-04-06T16:10:04.654Z,93462.42
2019-04-06T16:12:37.677Z,93465.08
2019-04-06T16:15:17.784Z,93468.00
2019-04-06T16:17:53.767Z,93471.31
2019-04-06T16:20:24.075Z,93475.99
2019-04-06T16:23:03.057Z,93475.64
2019-04-06T16:25:33.365Z,93474.27
2019-04-06T16:28:07.051Z,93483.51
2019-04-06T16:30:37.324Z,93477.75
2019-04-06T16:33:16.250Z,93480.34
2019-04-06T16:35:47.339Z,93480.01
2019-04-06T16:38:32.842Z,93477.08
2019-04-06T16:41:06.288Z,93488.12
2019-04-06T16:43:36.567Z,93481.75
2019-04-06T16:46:21.935Z,93491.30
2019-04-06T16:48:55.113Z,93490.97
2019-04-06T16:51:31.704Z,93494.10
2019-04-06T16:54:20.105Z,93500.30
2019-04-06T16:56:53.341Z,93498.84
2019-04-06T16:59:32.215Z,93497.36
2019-04-06T17:02:02.921Z,93502.37
2019-04-06T17:04:36.200Z,93497.98
2019-04-06T17:07:06.460Z,93498.91
2019-04-06T17:09:48.963Z,93486.30
2019-04-06T17:12:28.297Z,93488.36
2019-04-06T17:15:07.597Z,93498.92
2019-04-06T17:17:38.150Z,93488.69
2019-04-06T17:20:17.941Z,93486.98
2019-04-06T17:23:00.459Z,93489.41
2019-04-06T17:25:33.272Z,93496.18
2019-04-06T17:28:12.578Z,93499.41
2019-04-06T17:30:48.882Z,93499.75
2019-04-06T17:33:19.146Z,93505.23
2019-04-06T17:35:52.103Z,93513.48
2019-04-06T17:38:23.838Z,93516.19
2019-04-06T17:40:54.140Z,93521.41
2019-04-06T17:43:24.913Z,93532.56
2019-04-06T17:45:55.191Z,93537.23
2019-04-06T17:48:41.431Z,93533.35
2019-04-06T17:51:11.734Z,93534.02
2019-04-06T17:53:58.077Z,93533.69
2019-04-06T17:56:43.250Z,93539.36
2019-04-06T17:59:25.659Z,93538.75
2019-04-06T18:02:02.178Z,93551.41
2019-04-06T18:04:35.141Z,93551.01
2019-04-06T18:07:08.382Z,93556.48
2019-04-06T18:09:56.839Z,93556.98
2019-04-06T18:12:30.133Z,93557.42
2019-04-06T18:14:58.763Z,93557.28
2019-04-06T18:17:28.110Z,93556.59
2019-04-06T18:19:57.286Z,93551.06
2019-04-06T18:22:25.943Z,93544.33
2019-04-06T18:24:54.571Z,93543.75
2019-04-06T18:27:23.370Z,93550.58
2019-04-06T18:29:51.996Z,93547.84
2019-04-06T18:32:24.884Z,93546.81
2019-04-06T18:34:52.644Z,93552.21
2019-04-06T18:37:22.916Z,93544.31
2019-04-06T18:39:53.769Z,93535.84
2019-04-06T18:42:22.996Z,93529.05
2019-04-06T18:44:51.902Z,93545.20
2019-04-06T18:47:20.949Z,93540.04
2019-04-06T18:49:49.723Z,93541.88
2019-04-06T18:52:18.338Z,93532.65
2019-04-06T18:54:46.977Z,93541.57
2019-04-06T18:57:16.028Z,93540.41
2019-04-06T18:59:44.859Z,93534.64
2019-04-06T19:02:13.446Z,93537.79
2019-04-06T19:04:42.198Z,93548.02
2019-04-06T19:07:10.926Z,93555.22
2019-04-06T19:09:39.692Z,93545.52
2019-04-06T19:12:08.363Z,93540.59
2019-04-06T19:14:37.203Z,93543.83
2019-04-06T19:17:06.258Z,93549.17
2019-04-06T19:19:35.254Z,93545.41
2019-04-06T19:22:03.945Z,93550.45
2019-04-06T19:24:32.572Z,93547.76
2019-04-06T19:27:01.152Z,93547.64
2019-04-06T19:29:29.772Z,93550.33
2019-04-06T19:31:58.946Z,93547.17
2019-04-06T19:34:28.220Z,93543.16
2019-04-06T19:36:56.875Z,93544.86
2019-04-06T19:39:25.519Z,93545.84
2019-04-06T19:41:55.044Z,93536.48
2019-04-06T19:44:23.684Z,93538.52
2019-04-06T19:46:52.896Z,93532.77
2019-04-06T19:49:21.564Z,93536.19
2019-04-06T19:51:50.196Z,93532.32
2019-04-06T19:54:18.850Z,93530.76
2019-04-06T19:56:47.658Z,93531.22
2019-04-06T19:59:16.370Z,93538.95
2019-04-06T20:01:44.944Z,93540.72
2019-04-06T20:04:13.804Z,93536.23
2019-04-06T20:06:42.409Z,93534.61
2019-04-06T20:09:11.042Z,93553.33
2019-04-06T20:11:40.061Z,93556.95
2019-04-06T20:14:08.734Z,93554.51
2019-04-06T20:16:37.368Z,93552.98
2019-04-06T20:19:06.117Z,93555.50
2019-04-06T20:21:34.758Z,93566.47
2019-04-06T20:24:03.386Z,93567.55
2019-04-06T20:26:32.709Z,93573.50
2019-04-06T20:29:01.447Z,93571.83
2019-04-06T20:31:30.504Z,93568.55
2019-04-06T20:33:59.223Z,93566.50
2019-04-06T20:36:28.764Z,93572.05
2019-04-06T20:38:57.390Z,93573.33
2019-04-06T20:41:26.062Z,93573.15
2019-04-06T20:43:56.184Z,93570.31
2019-04-06T20:46:24.857Z,93564.72
2019-04-06T20:48:53.879Z,93563.03
2019-04-06T20:51:22.644Z,93567.41
2019-04-06T20:53:51.292Z,93569.95
2019-04-06T20:56:19.967Z,93569.49
2019-04-06T20:58:49.091Z,93570.03
2019-04-06T21:01:17.707Z,93571.72
2019-04-06T21:03:57.804Z,93571.22
2019-04-06T21:06:16.918Z,93579.54
2019-04-06T21:08:45.913Z,93572.33
2019-04-06T21:11:15.105Z,93569.09
2019-04-06T21:13:43.711Z,93568.34
2019-04-06T21:16:12.490Z,93573.44
2019-04-06T21:18:41.276Z,93577.70
2019-04-06T21:21:10.911Z,93574.58
2019-04-06T21:23:39.656Z,93577.70
2019-04-06T21:26:08.320Z,93576.67
2019-04-06T21:28:36.957Z,93578.80
2019-04-06T21:31:05.596Z,93579.47
2019-04-06T21:33:34.260Z,93582.53
2019-04-06T21:36:03.253Z,93587.61
2019-04-06T21:38:32.183Z,93581.20
2019-04-06T21:41:00.797Z,93584.37
2019-04-06T21:43:29.927Z,93590.08
2019-04-06T21:45:59.370Z,93579.24
2019-04-06T21:48:28.047Z,93577.44
2019-04-06T21:50:57.250Z,93579.04
2019-04-06T21:53:25.878Z,93571.33
2019-04-06T21:56:02.659Z,93576.02
2019-04-06T21:58:25.490Z,93569.27
2019-04-06T22:00:55.766Z,93563.08
2019-04-06T22:03:24.428Z,93564.41
2019-04-06T22:05:53.264Z,93566.67
2019-04-06T22:08:21.864Z,93567.80
2019-04-06T22:10:50.535Z,93563.23
2019-04-06T22:13:19.532Z,93565.69
2019-04-06T22:15:48.229Z,93559.26
2019-04-06T22:18:17.133Z,93560.68
2019-04-06T22:20:45.734Z,93557.89
2019-04-06T22:23:14.362Z,93563.01
2019-04-06T22:25:43.572Z,93567.06
2019-04-06T22:28:12.235Z,93564.03
2019-04-06T22:30:41.707Z,93561.55
2019-04-06T22:33:10.385Z,93552.44
2019-04-06T22:35:39.018Z,93551.09
2019-04-06T22:38:08.095Z,93559.69
2019-04-06T22:40:37.056Z,93554.91
2019-04-06T22:43:05.786Z,93555.41
2019-04-06T22:45:34.988Z,93558.33
2019-04-06T22:48:04.602Z,93554.67
2019-04-06T22:50:33.782Z,93559.58
2019-04-06T22:53:02.646Z,93553.98
2019-04-06T22:55:31.314Z,93558.00
2019-04-06T22:57:59.930Z,93553.03
2019-04-06T23:00:30.506Z,93553.82
2019-04-06T23:03:09.643Z,93551.94
2019-04-06T23:05:46.079Z,93565.53
2019-04-06T23:08:14.739Z,93557.27
2019-04-06T23:10:43.384Z,93558.02
2019-04-06T23:13:12.287Z,93554.98
2019-04-06T23:15:41.046Z,93552.95
2019-04-06T23:18:10.397Z,93556.88
2019-04-06T23:20:39.103Z,93547.71
2019-04-06T23:23:07.849Z,93548.21
2019-04-06T23:25:37.186Z,93550.98
2019-04-06T23:28:05.908Z,93555.47
2019-04-06T23:30:34.620Z,93552.37
2019-04-06T23:33:03.849Z,93547.69
2019-04-06T23:35:32.460Z,93552.18
2019-04-06T23:38:01.129Z,93548.19
2019-04-06T23:40:29.766Z,93550.42
2019-04-06T23:42:58.406Z,93551.85
2019-04-06T23:45:27.091Z,93546.02
2019-04-06T23:47:55.897Z,93546.81
2019-04-06T23:50:24.539Z,93542.61
2019-04-06T23:52:53.340Z,93534.73
2019-04-06T23:55:21.954Z,93535.17
2019-04-06T23:57:51.043Z,93537.47
